createdAt,value
2023-02-05T00:01:11.723Z,99676.50
2023-02-05T00:03:45.290Z,99686.56
2023-02-05T00:06:18.660Z,99670.30
2023-02-05T00:08:52.148Z,99677.12
2023-02-05T00:11:26.240Z,99683.04
2023-02-05T00:13:59.657Z,99674.36
2023-02-05T00:16:34.753Z,99680.19
2023-02-05T00:19:08.271Z,99684.45
2023-02-05T00:21:41.784Z,99679.11
2023-02-05T00:24:15.547Z,99674.10
2023-02-05T00:26:48.945Z,99681.96
2023-02-05T00:29:22.321Z,99679.31
2023-02-05T00:31:55.541Z,99685.31
2023-02-05T00:34:30.030Z,99684.36
2023-02-05T00:37:03.321Z,99686.10
2023-02-05T00:39:36.820Z,99691.14
2023-02-05T00:42:10.442Z,99690.36
2023-02-05T00:44:43.761Z,99688.58
2023-02-05T00:47:17.317Z,99696.11
2023-02-05T00:49:50.816Z,99690.98
2023-02-05T00:52:24.338Z,99692.84
2023-02-05T00:54:58.495Z,99691.06
2023-02-05T00:57:31.890Z,99701.06
2023-02-05T01:00:07.144Z,99695.64
2023-02-05T01:02:40.688Z,99702.47
2023-02-05T01:05:14.019Z,99704.73
2023-02-05T01:07:47.650Z,99706.31
2023-02-05T01:10:21.229Z,99701.19
2023-02-05T01:12:54.708Z,99704.73
2023-02-05T01:15:28.554Z,99711.35
2023-02-05T01:18:02.262Z,99706.66
2023-02-05T01:20:37.457Z,99707.06
2023-02-05T01:23:11.133Z,99705.91
2023-02-05T01:25:44.900Z,99704.82
2023-02-05T01:28:18.515Z,99710.47
2023-02-05T01:30:53.193Z,99709.47
2023-02-05T01:33:26.624Z,99712.03
2023-02-05T01:36:01.351Z,99715.02
2023-02-05T01:38:34.540Z,99723.11
2023-02-05T01:41:09.411Z,99709.81
2023-02-05T01:43:42.940Z,99720.55
2023-02-05T01:46:26.466Z,99716.02
2023-02-05T01:49:01.884Z,99723.62
2023-02-05T01:51:38.087Z,99726.09
2023-02-05T01:54:11.819Z,99716.72
2023-02-05T01:56:47.770Z,99717.80
2023-02-05T01:59:25.307Z,99723.80
2023-02-05T02:02:00.910Z,99722.32
2023-02-05T02:04:38.251Z,99720.45
2023-02-05T02:07:14.300Z,99730.00
2023-02-05T02:09:49.355Z,99728.44
2023-02-05T02:12:25.482Z,99723.67
2023-02-05T02:15:03.797Z,99727.53
2023-02-05T02:17:40.203Z,99728.70
2023-02-05T02:20:15.928Z,99726.14
2023-02-05T02:23:00.729Z,99733.13
2023-02-05T02:25:52.631Z,99733.30
2023-02-05T02:28:29.645Z,99735.08
2023-02-05T02:31:06.069Z,99733.48
2023-02-05T02:33:43.015Z,99727.57
2023-02-05T02:36:19.650Z,99734.17
2023-02-05T02:38:57.262Z,99732.22
2023-02-05T02:41:33.659Z,99731.14
2023-02-05T02:44:09.817Z,99728.31
2023-02-05T02:46:46.050Z,99726.05
2023-02-05T02:49:22.288Z,99728.92
2023-02-05T02:51:57.256Z,99738.69
2023-02-05T02:54:32.671Z,99738.41
2023-02-05T02:57:09.276Z,99739.10
2023-02-05T02:59:44.846Z,99739.02
2023-02-05T03:02:19.781Z,99741.27
2023-02-05T03:04:56.060Z,99753.67
2023-02-05T03:07:32.941Z,99749.92
2023-02-05T03:10:10.921Z,99752.20
2023-02-05T03:12:44.731Z,99750.34
2023-02-05T03:15:18.917Z,99750.25
2023-02-05T03:17:54.819Z,99755.23
2023-02-05T03:20:31.699Z,99754.36
2023-02-05T03:23:05.295Z,99763.73
2023-02-05T03:25:40.333Z,99756.61
2023-02-05T03:28:16.154Z,99759.17
2023-02-05T03:30:58.143Z,99768.25
2023-02-05T03:33:40.291Z,99766.06
2023-02-05T03:36:18.458Z,99759.76
2023-02-05T03:39:07.995Z,99749.11
2023-02-05T03:41:57.634Z,99764.05
2023-02-05T03:44:41.492Z,99762.66
2023-02-05T03:47:18.403Z,99760.28
2023-02-05T03:49:54.942Z,99760.77
2023-02-05T03:52:32.818Z,99761.22
2023-02-05T03:55:10.048Z,99767.59
2023-02-05T03:57:48.687Z,99765.19
2023-02-05T04:00:23.481Z,99765.34
2023-02-05T04:02:58.065Z,99765.39
2023-02-05T04:05:33.856Z,99775.31
2023-02-05T04:08:08.757Z,99776.77
2023-02-05T04:10:43.750Z,99777.34
2023-02-05T04:13:19.123Z,99777.10
2023-02-05T04:15:53.341Z,99777.10
2023-02-05T04:18:27.710Z,99781.23
2023-02-05T04:21:01.957Z,99785.34
2023-02-05T04:23:36.281Z,99782.01
2023-02-05T04:26:12.625Z,99783.79
2023-02-05T04:28:47.791Z,99784.66
2023-02-05T04:31:21.507Z,99785.23
2023-02-05T04:33:55.465Z,99794.48
2023-02-05T04:36:29.291Z,99792.91
2023-02-05T04:39:03.197Z,99801.58
2023-02-05T04:41:36.795Z,99805.34
2023-02-05T04:44:10.427Z,99805.98
2023-02-05T04:46:44.123Z,99809.84
2023-02-05T04:49:17.558Z,99814.38
2023-02-05T04:51:50.960Z,99811.63
2023-02-05T04:54:24.374Z,99820.64
2023-02-05T04:56:58.063Z,99821.98
2023-02-05T04:59:31.827Z,99826.65
2023-02-05T05:02:05.535Z,99822.68
2023-02-05T05:04:43.219Z,99833.13
2023-02-05T05:07:16.033Z,99836.24
2023-02-05T05:09:51.021Z,99832.67
2023-02-05T05:12:24.224Z,99835.80
2023-02-05T05:14:57.666Z,99842.58
2023-02-05T05:17:31.050Z,99844.80
2023-02-05T05:20:05.191Z,99841.89
2023-02-05T05:22:38.641Z,99852.66
2023-02-05T05:25:12.484Z,99853.78
2023-02-05T05:27:45.919Z,99856.13
2023-02-05T05:30:19.674Z,99854.44
2023-02-05T05:32:53.149Z,99854.55
2023-02-05T05:35:26.553Z,99846.76
2023-02-05T05:38:00.337Z,99849.95
2023-02-05T05:40:51.543Z,99856.58
2023-02-05T05:43:52.676Z,99853.59
2023-02-05T05:46:27.559Z,99864.21
2023-02-05T05:49:02.600Z,99868.21
2023-02-05T05:51:36.119Z,99864.70
2023-02-05T05:54:09.853Z,99860.02
2023-02-05T05:56:45.214Z,99859.57
2023-02-05T05:59:19.453Z,99862.52
2023-02-05T06:01:53.141Z,99861.06
2023-02-05T06:04:26.645Z,99869.27
2023-02-05T06:07:00.309Z,99859.36
2023-02-05T06:09:34.124Z,99860.75
2023-02-05T06:12:10.070Z,99866.19
2023-02-05T06:14:43.614Z,99866.57
2023-02-05T06:17:17.265Z,99871.23
2023-02-05T06:19:50.465Z,99865.98
2023-02-05T06:22:23.931Z,99868.86
2023-02-05T06:24:57.421Z,99877.55
2023-02-05T06:27:30.677Z,99880.11
2023-02-05T06:30:04.384Z,99884.23
2023-02-05T06:32:37.854Z,99883.55
2023-02-05T06:35:11.793Z,99880.63
2023-02-05T06:37:47.544Z,99888.00
2023-02-05T06:40:22.595Z,99888.50
2023-02-05T06:42:56.116Z,99893.03
2023-02-05T06:45:29.637Z,99897.70
2023-02-05T06:48:03.358Z,99901.35
2023-02-05T06:50:36.778Z,99904.01
2023-02-05T06:53:11.789Z,99905.38
2023-02-05T06:55:45.098Z,99902.54
2023-02-05T06:58:18.540Z,99902.26
2023-02-05T07:00:52.364Z,99897.03
2023-02-05T07:03:25.965Z,99908.05
2023-02-05T07:06:04.814Z,99901.45
2023-02-05T07:08:38.508Z,99909.71
2023-02-05T07:11:12.193Z,99901.72
2023-02-05T07:13:45.673Z,99901.90
2023-02-05T07:16:19.704Z,99909.11
2023-02-05T07:18:53.505Z,99908.59
2023-02-05T07:21:26.924Z,99908.46
2023-02-05T07:24:00.276Z,99912.38
2023-02-05T07:26:33.787Z,99917.89
2023-02-05T07:29:07.295Z,99927.75
2023-02-05T07:31:40.844Z,99920.23
2023-02-05T07:34:14.321Z,99926.59
2023-02-05T07:36:49.375Z,99927.08
2023-02-05T07:39:22.913Z,99936.94
2023-02-05T07:41:56.705Z,99931.49
2023-02-05T07:44:34.631Z,99925.47
2023-02-05T07:47:08.132Z,99915.44
2023-02-05T07:49:41.606Z,99900.15
2023-02-05T07:52:15.149Z,99898.48
2023-02-05T07:54:49.210Z,99897.61
2023-02-05T07:57:22.601Z,99895.50
2023-02-05T07:59:56.029Z,99900.36
2023-02-05T08:02:29.578Z,99895.17
2023-02-05T08:05:03.107Z,99891.22
2023-02-05T08:07:37.685Z,99892.48
2023-02-05T08:10:14.774Z,99900.73
2023-02-05T08:12:48.366Z,99909.06
2023-02-05T08:15:22.231Z,99916.35
2023-02-05T08:17:55.772Z,99920.03
2023-02-05T08:20:29.453Z,99927.59
2023-02-05T08:23:05.264Z,99922.31
2023-02-05T08:25:39.435Z,99907.42
2023-02-05T08:28:12.840Z,99912.58
2023-02-05T08:30:46.167Z,99911.25
2023-02-05T08:33:20.213Z,99914.03
2023-02-05T08:35:53.908Z,99911.13
2023-02-05T08:38:28.302Z,99902.56
2023-02-05T08:41:03.441Z,99906.09
2023-02-05T08:43:36.770Z,99909.58
2023-02-05T08:46:10.757Z,99907.78
2023-02-05T08:48:44.442Z,99907.00
2023-02-05T08:51:19.508Z,99918.81
2023-02-05T08:53:53.609Z,99929.57
2023-02-05T08:56:27.234Z,99923.20
2023-02-05T08:59:00.812Z,99927.10
2023-02-05T09:01:34.313Z,99922.74
2023-02-05T09:04:08.515Z,99930.59
2023-02-05T09:06:42.321Z,99925.52
2023-02-05T09:09:16.261Z,99939.83
2023-02-05T09:11:50.609Z,99943.94
2023-02-05T09:14:24.230Z,99946.59
2023-02-05T09:16:57.910Z,99941.80
2023-02-05T09:19:32.621Z,99944.42
2023-02-05T09:22:07.002Z,99930.56
2023-02-05T09:24:40.766Z,99937.57
2023-02-05T09:27:15.111Z,99925.23
2023-02-05T09:29:48.497Z,99924.02
2023-02-05T09:32:22.264Z,99929.67
2023-02-05T09:34:55.810Z,99916.25
2023-02-05T09:37:29.328Z,99914.81
2023-02-05T09:40:20.850Z,99913.23
2023-02-05T09:42:40.944Z,99920.19
2023-02-05T09:45:20.603Z,99923.77
2023-02-05T09:47:56.833Z,99915.63
2023-02-05T09:50:31.812Z,99927.77
2023-02-05T09:53:07.945Z,99927.38
2023-02-05T09:55:45.080Z,99936.71
2023-02-05T09:58:22.025Z,99932.99
2023-02-05T10:00:59.607Z,99932.98
2023-02-05T10:03:33.362Z,99933.82
2023-02-05T10:06:16.340Z,99931.17
2023-02-05T10:08:52.857Z,99940.92
2023-02-05T10:11:29.526Z,99942.04
2023-02-05T10:14:07.330Z,99935.91
2023-02-05T10:16:46.177Z,99929.61
2023-02-05T10:22:30.089Z,99930.36
2023-02-05T10:25:20.715Z,99938.63
2023-02-05T10:27:57.052Z,99934.80
2023-02-05T10:30:34.151Z,99938.59
2023-02-05T10:33:11.214Z,99943.25
2023-02-05T10:35:47.422Z,99945.17
2023-02-05T10:38:24.423Z,99939.72
2023-02-05T10:41:00.929Z,99940.24
2023-02-05T10:43:37.436Z,99940.24
2023-02-05T10:46:14.211Z,99955.95
2023-02-05T10:48:49.836Z,99961.22
2023-02-05T10:51:26.576Z,99966.28
2023-02-05T10:54:01.870Z,99968.92
2023-02-05T10:56:35.353Z,99982.52
2023-02-05T10:59:08.645Z,99973.17
2023-02-05T11:01:42.465Z,99982.33
2023-02-05T11:04:18.700Z,99981.66
2023-02-05T11:06:53.812Z,99987.10
2023-02-05T11:09:36.017Z,99984.74
2023-02-05T11:12:18.521Z,99982.78
2023-02-05T11:14:59.457Z,99988.88
2023-02-05T11:17:36.814Z,99982.62
2023-02-05T11:20:15.055Z,99990.91
2023-02-05T11:22:49.906Z,99990.91
2023-02-05T11:25:26.585Z,99992.61
2023-02-05T11:28:01.316Z,100001.45
2023-02-05T11:30:52.672Z,99991.94
2023-02-05T11:33:27.845Z,99995.81
2023-02-05T11:36:04.006Z,100000.27
2023-02-05T11:38:45.913Z,100003.18
2023-02-05T11:41:29.307Z,100007.62
2023-02-05T11:44:04.467Z,100014.30
2023-02-05T11:46:41.245Z,100009.45
2023-02-05T11:49:21.595Z,100008.84
2023-02-05T11:51:57.577Z,100000.74
2023-02-05T11:54:33.029Z,100003.03
2023-02-05T11:57:10.525Z,99995.94
2023-02-05T11:59:44.756Z,100003.30
2023-02-05T12:05:24.036Z,100000.53
2023-02-05T12:08:00.685Z,99997.12
2023-02-05T12:10:38.518Z,99996.17
2023-02-05T12:13:18.634Z,99996.20
2023-02-05T12:15:56.821Z,99998.98
2023-02-05T12:18:35.157Z,100001.86
2023-02-05T12:21:17.257Z,100000.59
2023-02-05T12:24:28.789Z,100004.10
2023-02-05T12:27:05.542Z,99991.98
2023-02-05T12:29:48.456Z,100000.89
2023-02-05T12:32:25.954Z,100012.05
2023-02-05T12:35:07.434Z,100020.59
2023-02-05T12:37:44.198Z,100015.12
2023-02-05T12:40:25.059Z,100024.93
2023-02-05T12:43:01.370Z,100011.98
2023-02-05T12:45:48.207Z,100012.45
2023-02-05T12:48:34.419Z,100012.70
2023-02-05T12:51:15.289Z,100012.95
2023-02-05T12:53:57.975Z,100013.91
2023-02-05T12:56:42.724Z,100012.59
2023-02-05T12:59:19.181Z,100010.20
2023-02-05T13:01:55.364Z,100012.20
2023-02-05T13:04:31.831Z,100015.34
2023-02-05T13:07:12.126Z,100011.95
2023-02-05T13:09:49.875Z,100020.91
2023-02-05T13:12:23.691Z,100016.20
2023-02-05T13:15:04.532Z,100025.41
2023-02-05T13:17:41.280Z,100024.62
2023-02-05T13:20:21.507Z,100022.20
2023-02-05T13:23:16.623Z,100017.31
2023-02-05T13:26:09.292Z,100021.03
2023-02-05T13:28:46.168Z,100021.27
2023-02-05T13:31:24.676Z,100030.61
2023-02-05T13:34:00.622Z,100028.04
2023-02-05T13:37:10.931Z,100022.17
2023-02-05T13:39:56.298Z,100028.34
2023-02-05T13:43:15.618Z,100026.41
2023-02-05T13:46:15.965Z,100028.04
2023-02-05T13:49:41.874Z,100038.13
2023-02-05T13:52:37.534Z,100044.59
2023-02-05T13:55:30.005Z,100043.09
2023-02-05T13:58:13.341Z,100045.66
2023-02-05T14:00:48.954Z,100048.71
2023-02-05T14:03:36.609Z,100043.38
2023-02-05T14:06:23.268Z,100042.66
2023-02-05T14:09:06.574Z,100041.86
2023-02-05T14:11:58.737Z,100043.56
2023-02-05T14:14:35.894Z,100043.87
2023-02-05T14:17:52.386Z,100044.87
2023-02-05T14:20:41.037Z,100051.00
2023-02-05T14:23:20.212Z,100056.23
2023-02-05T14:26:12.286Z,100056.00
2023-02-05T14:28:53.738Z,100062.02
2023-02-05T14:32:03.567Z,100058.09
2023-02-05T14:35:03.113Z,100062.45
2023-02-05T14:37:39.249Z,100064.23
2023-02-05T14:40:25.023Z,100072.87
2023-02-05T14:43:09.833Z,100073.84
2023-02-05T14:45:39.605Z,100073.04
2023-02-05T14:48:23.917Z,100078.81
2023-02-05T14:51:10.206Z,100080.50
2023-02-05T14:53:45.991Z,100078.72
2023-02-05T14:56:30.753Z,100089.98
2023-02-05T14:59:07.582Z,100078.86
2023-02-05T15:01:50.616Z,100085.95
2023-02-05T15:04:49.134Z,100086.78
2023-02-05T15:07:25.826Z,100087.20
2023-02-05T15:10:02.805Z,100084.16
2023-02-05T15:16:21.853Z,100082.36
2023-02-05T15:18:57.023Z,100081.25
2023-02-05T15:21:33.240Z,100092.22
2023-02-05T15:24:09.349Z,100090.66
2023-02-05T15:26:46.664Z,100101.72
2023-02-05T15:29:24.023Z,100092.32
2023-02-05T15:32:00.586Z,100096.20
2023-02-05T15:34:38.239Z,100098.02
2023-02-05T15:37:18.909Z,100091.30
2023-02-05T15:39:55.204Z,100096.73
2023-02-05T15:42:33.095Z,100095.27
2023-02-05T15:45:18.897Z,100098.13
2023-02-05T15:48:02.367Z,100100.51
2023-02-05T15:50:37.396Z,100105.83
2023-02-05T15:53:13.651Z,100113.91
2023-02-05T15:55:50.246Z,100110.37
2023-02-05T15:58:26.575Z,100120.62
2023-02-05T16:01:00.138Z,100114.08
2023-02-05T16:03:36.601Z,100123.38
2023-02-05T16:06:18.645Z,100118.12
2023-02-05T16:08:53.720Z,100122.73
2023-02-05T16:11:32.287Z,100116.22
2023-02-05T16:14:15.675Z,100121.61
2023-02-05T16:17:03.306Z,100128.00
2023-02-05T16:19:36.900Z,100123.27
2023-02-05T16:22:14.453Z,100124.63
2023-02-05T16:24:50.969Z,100126.51
2023-02-05T16:27:27.795Z,100125.44
2023-02-05T16:30:05.123Z,100121.73
2023-02-05T16:32:42.555Z,100118.00
2023-02-05T16:35:21.452Z,100125.52
2023-02-05T16:37:55.199Z,100121.59
2023-02-05T16:40:36.508Z,100121.00
2023-02-05T16:43:23.994Z,100119.44
2023-02-05T16:46:25.529Z,100126.91
2023-02-05T16:49:01.042Z,100120.62
2023-02-05T16:52:07.101Z,100120.03
2023-02-05T16:54:42.380Z,100135.25
2023-02-05T16:57:18.982Z,100134.84
2023-02-05T16:59:54.487Z,100133.46
2023-02-05T17:02:32.196Z,100135.25
2023-02-05T17:05:08.915Z,100140.97
2023-02-05T17:07:42.820Z,100141.06
2023-02-05T17:10:20.638Z,100141.66
2023-02-05T17:12:56.637Z,100147.47
2023-02-05T17:18:38.186Z,100152.09
2023-02-05T17:21:26.962Z,100152.34
2023-02-05T17:24:03.088Z,100152.02
2023-02-05T17:26:39.491Z,100139.00
2023-02-05T17:29:17.321Z,100148.58
2023-02-05T17:31:49.398Z,100153.70
2023-02-05T17:34:22.767Z,100154.58
2023-02-05T17:36:56.572Z,100156.37
2023-02-05T17:39:30.666Z,100160.23
2023-02-05T17:42:04.394Z,100173.92
2023-02-05T17:44:38.214Z,100165.27
2023-02-05T17:47:13.100Z,100173.05
2023-02-05T17:49:46.536Z,100173.24
2023-02-05T17:52:20.103Z,100173.56
2023-02-05T17:54:54.158Z,100169.31
2023-02-05T17:57:27.853Z,100175.03
2023-02-05T18:00:02.331Z,100169.61
2023-02-05T18:02:37.161Z,100173.83
2023-02-05T18:05:12.885Z,100172.86
2023-02-05T18:07:49.171Z,100175.97
2023-02-05T18:10:25.192Z,100172.01
2023-02-05T18:13:03.323Z,100167.81
2023-02-05T18:15:39.016Z,100175.73
2023-02-05T18:18:14.024Z,100164.67
2023-02-05T18:20:48.070Z,100172.36
2023-02-05T18:23:28.733Z,100175.06
2023-02-05T18:25:59.096Z,100167.56
2023-02-05T18:28:34.341Z,100172.01
2023-02-05T18:31:09.631Z,100173.80
2023-02-05T18:33:43.245Z,100173.95
2023-02-05T18:36:21.481Z,100179.66
2023-02-05T18:38:56.684Z,100182.80
2023-02-05T18:41:31.788Z,100177.97
2023-02-05T18:44:05.354Z,100181.02
2023-02-05T18:46:39.294Z,100189.28
2023-02-05T18:49:12.996Z,100186.14
2023-02-05T18:51:48.626Z,100183.19
2023-02-05T18:54:22.216Z,100190.30
2023-02-05T18:56:57.113Z,100187.74
2023-02-05T18:59:30.626Z,100193.09
2023-02-05T19:02:05.659Z,100191.41
2023-02-05T19:04:38.837Z,100193.25
2023-02-05T19:07:14.245Z,100188.27
2023-02-05T19:09:47.775Z,100192.76
2023-02-05T19:12:21.373Z,100196.81
2023-02-05T19:14:56.596Z,100208.97
2023-02-05T19:17:30.486Z,100210.21
2023-02-05T19:20:05.619Z,100202.96
2023-02-05T19:22:42.494Z,100206.86
2023-02-05T19:25:15.999Z,100209.42
2023-02-05T19:27:49.616Z,100206.53
2023-02-05T19:30:23.529Z,100212.64
2023-02-05T19:32:58.494Z,100218.20
2023-02-05T19:35:32.220Z,100223.00
2023-02-05T19:38:08.872Z,100222.42
2023-02-05T19:40:42.596Z,100226.30
2023-02-05T19:43:17.666Z,100221.19
2023-02-05T19:45:51.284Z,100224.66
2023-02-05T19:48:24.428Z,100222.30
2023-02-05T19:50:58.400Z,100216.40
2023-02-05T19:53:31.915Z,100233.66
2023-02-05T19:56:07.291Z,100227.86
2023-02-05T19:58:42.267Z,100224.72
2023-02-05T20:01:18.673Z,100220.27
2023-02-05T20:03:53.624Z,100228.06
2023-02-05T20:06:28.568Z,100228.27
2023-02-05T20:09:03.399Z,100224.25
2023-02-05T20:11:36.924Z,100226.51
2023-02-05T20:14:10.970Z,100229.95
2023-02-05T20:16:45.968Z,100228.06
2023-02-05T20:19:20.378Z,100240.00
2023-02-05T20:21:53.834Z,100238.88
2023-02-05T20:24:29.799Z,100243.77
2023-02-05T20:27:03.339Z,100250.68
2023-02-05T20:29:54.296Z,100248.36
2023-02-05T20:32:29.181Z,100255.14
2023-02-05T20:35:02.691Z,100252.37
2023-02-05T20:37:37.059Z,100251.45
2023-02-05T20:40:12.791Z,100253.92
2023-02-05T20:42:47.366Z,100253.92
2023-02-05T20:45:23.682Z,100257.49
2023-02-05T20:47:57.241Z,100259.14
2023-02-05T20:50:30.896Z,100261.50
2023-02-05T20:53:04.172Z,100257.72
2023-02-05T20:55:37.451Z,100260.28
2023-02-05T20:58:10.870Z,100258.84
2023-02-05T21:00:44.842Z,100261.06
2023-02-05T21:03:20.033Z,100259.84
2023-02-05T21:05:54.805Z,100264.19
2023-02-05T21:08:28.453Z,100267.87
2023-02-05T21:11:02.335Z,100271.00
2023-02-05T21:13:36.237Z,100262.86
2023-02-05T21:16:10.552Z,100266.55
2023-02-05T21:18:44.548Z,100267.78
2023-02-05T21:21:19.408Z,100271.23
2023-02-05T21:23:57.344Z,100269.55
2023-02-05T21:26:32.778Z,100271.79
2023-02-05T21:29:10.127Z,100270.55
2023-02-05T21:31:46.628Z,100269.99
2023-02-05T21:34:25.056Z,100269.53
2023-02-05T21:36:58.718Z,100265.89
2023-02-05T21:39:32.557Z,100272.66
2023-02-05T21:42:06.189Z,100271.54
2023-02-05T21:44:39.552Z,100273.89
2023-02-05T21:47:12.851Z,100279.78
2023-02-05T21:49:46.918Z,100278.91
2023-02-05T21:52:20.618Z,100276.00
2023-02-05T21:54:54.154Z,100277.58
2023-02-05T21:57:27.554Z,100282.45
2023-02-05T22:00:02.728Z,100281.13
2023-02-05T22:02:38.107Z,100283.69
2023-02-05T22:05:12.158Z,100283.16
2023-02-05T22:07:45.641Z,100284.48
2023-02-05T22:10:19.901Z,100285.16
2023-02-05T22:12:53.604Z,100285.92
2023-02-05T22:15:28.051Z,100288.59
2023-02-05T22:18:01.625Z,100292.16
2023-02-05T22:20:34.750Z,100286.38
2023-02-05T22:23:08.225Z,100282.45
2023-02-05T22:25:48.136Z,100283.92
2023-02-05T22:28:21.910Z,100281.58
2023-02-05T22:31:00.912Z,100283.36
2023-02-05T22:33:35.026Z,100266.98
2023-02-05T22:36:11.621Z,100287.26
2023-02-05T22:38:45.778Z,100290.38
2023-02-05T22:41:20.991Z,100290.94
2023-02-05T22:43:56.128Z,100299.15
2023-02-05T22:46:31.174Z,100293.71
2023-02-05T22:49:05.480Z,100301.50
2023-02-05T22:51:41.442Z,100301.70
2023-02-05T22:54:16.262Z,100306.41
2023-02-05T22:56:49.698Z,100305.39
2023-02-05T22:59:23.551Z,100301.14
2023-02-05T23:01:57.120Z,100301.14
2023-02-05T23:04:30.778Z,100301.28
2023-02-05T23:07:04.251Z,100300.38
2023-02-05T23:09:37.854Z,100300.82
2023-02-05T23:12:11.613Z,100302.36
2023-02-05T23:14:44.908Z,100302.92
2023-02-05T23:17:18.453Z,100296.26
2023-02-05T23:19:55.156Z,100305.73
2023-02-05T23:22:28.956Z,100306.25
2023-02-05T23:25:02.599Z,100312.69
2023-02-05T23:27:37.476Z,100312.58
2023-02-05T23:30:13.751Z,100312.83
2023-02-05T23:32:47.399Z,100310.59
2023-02-05T23:35:21.142Z,100304.92
2023-02-05T23:37:54.902Z,100303.94
2023-02-05T23:40:28.717Z,100305.17
2023-02-05T23:43:02.200Z,100306.05
2023-02-05T23:45:36.042Z,100310.95
2023-02-05T23:48:09.911Z,100309.47
2023-02-05T23:50:43.921Z,100312.69
2023-02-05T23:53:17.722Z,100306.89
2023-02-05T23:55:52.511Z,100303.65
2023-02-05T23:58:27.608Z,100305.33
